Time;durP1;ratioP1;P1;durP2;ratioP2;P2;SDS_P1;SDS_P2;PMS_P1;PMS_P2;Temp;Humidity;BMP_temperature;BMP_pressure;BME280_temperature;BME280_humidity;BME280_pressure;Samples;Min_cycle;Max_cycle;Signal;HPM_P1;HPM_P2
2021/08/24 00:00:12;;;;;;;8.40;4.15;;;;;;;15.86;84.30;102542.88;5006334;28;20030;-86
2021/08/24 00:02:37;;;;;;;8.02;4.18;;;;;;;15.71;84.21;102529.97;4993814;28;20834;-86
2021/08/24 00:05:04;;;;;;;8.63;4.80;;;;;;;15.71;84.30;102540.81;5023514;28;20521;-87
2021/08/24 00:07:30;;;;;;;7.70;4.18;;;;;;;15.65;84.31;102538.75;5008504;28;20126;-86
2021/08/24 00:09:56;;;;;;;7.93;3.88;;;;;;;15.63;84.61;102542.63;5020321;28;20377;-87
2021/08/24 00:12:21;;;;;;;7.18;4.18;;;;;;;15.61;85.07;102540.06;5011823;28;20586;-87
2021/08/24 00:14:47;;;;;;;7.22;4.00;;;;;;;15.30;84.81;102497.31;5027428;28;20026;-87
2021/08/24 00:17:12;;;;;;;8.13;3.80;;;;;;;15.51;84.89;102536.69;5011508;28;20477;-87
2021/08/24 00:19:38;;;;;;;5.15;3.80;;;;;;;15.49;84.42;102536.00;5018195;28;20447;-87
2021/08/24 00:22:04;;;;;;;5.25;3.40;;;;;;;15.44;84.61;102543.75;5025396;28;20510;-86
2021/08/24 00:24:29;;;;;;;5.85;3.40;;;;;;;15.38;84.77;102546.13;5010991;28;20033;-87
2021/08/24 00:26:55;;;;;;;7.60;3.80;;;;;;;15.41;84.85;102554.94;5012346;28;20120;-87
2021/08/24 00:29:21;;;;;;;5.60;3.83;;;;;;;15.30;84.69;102539.81;5010867;28;20033;-88
2021/08/24 00:31:46;;;;;;;6.90;3.75;;;;;;;15.30;85.39;102543.38;4995107;28;20037;-87
2021/08/24 00:34:12;;;;;;;5.88;3.85;;;;;;;15.24;85.32;102548.59;4997097;28;20029;-87
2021/08/24 00:36:37;;;;;;;6.45;3.85;;;;;;;15.04;85.38;102526.34;5009503;28;20484;-87
2021/08/24 00:39:03;;;;;;;5.55;3.50;;;;;;;15.17;85.08;102553.81;5011213;28;20093;-87
2021/08/24 00:41:29;;;;;;;6.45;3.60;;;;;;;15.17;85.08;102553.81;5010060;28;20029;-87
2021/08/24 00:43:55;;;;;;;4.95;3.20;;;;;;;15.17;84.46;102553.81;5008154;28;20033;-87
2021/08/24 00:46:27;;;;;;;8.27;3.78;;;;;;;15.16;84.63;102566.53;5009567;28;20045;-86
2021/08/24 00:48:53;;;;;;;5.57;3.92;;;;;;;15.04;85.21;102556.13;5027017;28;20068;-86
2021/08/24 00:51:21;;;;;;;6.00;3.70;;;;;;;15.03;85.68;102558.00;5008452;28;20081;-86
2021/08/24 00:53:48;;;;;;;9.00;3.97;;;;;;;14.98;85.71;102554.91;5040693;28;20075;-86
2021/08/24 00:56:14;;;;;;;12.35;4.45;;;;;;;14.99;85.21;102551.19;5006598;28;20045;-87
2021/08/24 00:58:40;;;;;;;6.70;3.63;;;;;;;14.97;85.44;102544.22;5007794;28;20030;-87
2021/08/24 01:01:06;;;;;;;10.02;4.07;;;;;;;14.98;84.96;102541.38;5009437;28;20064;-86
2021/08/24 01:03:38;;;;;;;5.32;3.60;;;;;;;14.91;85.32;102535.72;4989741;28;20037;-86
2021/08/24 01:06:10;;;;;;;6.78;3.95;;;;;;;14.99;85.34;102550.34;5025478;28;20108;-86
2021/08/24 01:08:52;;;;;;;7.65;4.38;;;;;;;14.95;85.64;102549.78;5010174;28;20618;-86
2021/08/24 01:11:29;;;;;;;9.10;4.15;;;;;;;14.85;85.84;102533.69;5027147;28;20435;-87
2021/08/24 01:14:16;;;;;;;7.57;4.55;;;;;;;14.87;86.30;102542.50;5011777;28;20083;-86
2021/08/24 01:16:44;;;;;;;9.00;4.30;;;;;;;14.82;86.43;102542.13;5043132;28;20026;-87
2021/08/24 01:19:41;;;;;;;7.65;4.53;;;;;;;14.78;86.62;102543.44;5027781;28;20032;-86
2021/08/24 01:22:44;;;;;;;5.72;3.63;;;;;;;14.75;86.49;102543.78;5026263;28;20107;-87
2021/08/24 01:25:17;;;;;;;7.40;4.10;;;;;;;14.63;86.22;102539.63;5009506;28;20109;-87
2021/08/24 01:27:50;;;;;;;8.43;4.22;;;;;;;14.56;86.83;102534.00;5027205;28;20033;-87
2021/08/24 01:30:34;;;;;;;7.43;4.28;;;;;;;14.55;87.55;102540.41;5023370;28;20034;-87
2021/08/24 01:33:37;;;;;;;8.82;5.40;;;;;;;14.63;87.98;102545.91;5025540;28;20052;-87
2021/08/24 01:36:06;;;;;;;9.73;5.45;;;;;;;14.71;88.23;102539.66;5024590;28;20701;-86
2021/08/24 01:38:34;;;;;;;8.00;5.38;;;;;;;14.77;88.21;102544.47;5009351;28;20448;-86
2021/08/24 01:41:10;;;;;;;8.88;5.40;;;;;;;14.82;88.26;102539.44;5027538;28;20955;-87
2021/08/24 01:44:03;;;;;;;10.00;5.20;;;;;;;14.88;88.29;102537.94;5008839;28;20088;-87
2021/08/24 01:46:43;;;;;;;10.65;4.57;;;;;;;14.87;87.86;102538.91;5020655;28;20470;-88
2021/08/24 01:49:10;;;;;;;7.47;4.25;;;;;;;14.83;87.88;102535.69;4992748;28;20048;-86
2021/08/24 01:51:46;;;;;;;8.40;4.47;;;;;;;14.86;88.17;102534.53;5010224;28;20029;-87
2021/08/24 01:54:17;;;;;;;10.07;5.32;;;;;;;14.86;88.52;102539.94;5019317;28;20175;-87
2021/08/24 01:56:44;;;;;;;7.70;4.47;;;;;;;14.87;88.60;102537.09;4990245;28;20645;-87
2021/08/24 01:59:11;;;;;;;8.30;5.05;;;;;;;14.98;88.28;102548.63;5010473;28;20087;-86
2021/08/24 02:01:46;;;;;;;7.57;4.95;;;;;;;15.00;88.01;102536.63;5005372;28;20062;-86
2021/08/24 02:04:17;;;;;;;9.30;4.97;;;;;;;14.99;87.93;102540.34;5011749;28;20497;-85
2021/08/24 02:06:45;;;;;;;9.00;4.60;;;;;;;14.88;88.11;102537.94;4994278;28;20053;-86
2021/08/24 02:09:22;;;;;;;7.88;4.57;;;;;;;14.83;88.11;102543.81;5027408;28;20025;-86
2021/08/24 02:11:49;;;;;;;9.00;4.82;;;;;;;14.88;87.70;102543.34;5011867;28;20476;-86
2021/08/24 02:14:16;;;;;;;9.55;4.93;;;;;;;14.71;87.85;102531.53;5010279;28;20095;-86
2021/08/24 02:16:44;;;;;;;9.68;4.93;;;;;;;14.80;87.84;102546.84;4990535;28;20068;-86
2021/08/24 02:19:22;;;;;;;9.82;4.53;;;;;;;14.70;87.86;102540.69;4992287;28;20025;-86
2021/08/24 02:21:53;;;;;;;6.35;3.85;;;;;;;14.69;87.89;102541.72;5008607;28;20025;-85
2021/08/24 02:24:22;;;;;;;7.00;4.43;;;;;;;14.66;87.68;102539.31;5010950;28;20060;-85
2021/08/24 02:26:49;;;;;;;8.10;5.10;;;;;;;14.70;87.43;102546.94;5008850;28;20764;-85
2021/08/24 02:29:15;;;;;;;8.88;4.80;;;;;;;14.72;87.43;102544.09;5022775;28;20029;-85
2021/08/24 02:31:49;;;;;;;9.48;4.53;;;;;;;14.72;87.15;102553.06;5025211;28;20099;-86
2021/08/24 02:34:36;;;;;;;7.63;4.03;;;;;;;14.68;87.23;102558.94;5005175;28;20029;-85
2021/08/24 02:37:18;;;;;;;8.07;4.25;;;;;;;14.68;87.12;102553.53;5023768;28;20028;-85
2021/08/24 02:40:06;;;;;;;7.78;4.57;;;;;;;14.71;86.91;102558.63;5010507;28;20029;-86
2021/08/24 02:42:33;;;;;;;8.40;4.32;;;;;;;14.65;86.94;102549.28;5008424;28;20080;-86
2021/08/24 02:45:27;;;;;;;6.72;3.92;;;;;;;14.56;87.34;102554.81;5023417;28;20500;-85
2021/08/24 02:47:53;;;;;;;7.57;4.00;;;;;;;14.44;87.30;102546.06;5023635;28;20026;-85
2021/08/24 02:50:19;;;;;;;14.88;5.93;;;;;;;14.49;87.03;102555.41;5023612;28;20899;-86
2021/08/24 02:52:45;;;;;;;9.48;4.35;;;;;;;14.46;86.87;102550.31;5023268;28;20022;-86
2021/08/24 02:55:11;;;;;;;9.27;4.20;;;;;;;14.46;86.91;102544.06;5024894;28;20445;-86
2021/08/24 02:57:38;;;;;;;10.38;4.63;;;;;;;14.47;86.69;102545.75;4992852;28;20034;-85
2021/08/24 03:00:05;;;;;;;7.60;4.35;;;;;;;14.47;86.35;102546.63;4993302;28;20090;-86
2021/08/24 03:02:31;;;;;;;7.18;4.28;;;;;;;14.48;86.89;102553.72;4991413;28;20028;-86
2021/08/24 03:04:56;;;;;;;8.25;4.85;;;;;;;14.34;87.30;102539.88;4991897;28;20029;-86
2021/08/24 03:07:27;;;;;;;7.78;4.70;;;;;;;14.37;88.10;102550.38;5006207;28;20053;-85
2021/08/24 03:09:54;;;;;;;7.25;4.57;;;;;;;14.29;88.52;102543.94;4994992;28;20526;-87
2021/08/24 03:12:29;;;;;;;14.35;4.45;;;;;;;14.26;87.84;102548.78;5025064;28;20022;-86
2021/08/24 03:14:59;;;;;;;8.25;4.50;;;;;;;14.20;88.20;102549.41;5018406;28;20033;-86
2021/08/24 03:17:52;;;;;;;7.40;4.10;;;;;;;14.13;87.96;102538.38;5008062;28;20120;-86
2021/08/24 03:20:21;;;;;;;5.68;3.70;;;;;;;14.09;87.80;102550.50;5002296;28;20037;-85
2021/08/24 03:22:48;;;;;;;7.18;3.95;;;;;;;14.08;87.51;102552.38;5042002;28;20052;-85
2021/08/24 03:25:15;;;;;;;9.30;4.53;;;;;;;13.96;87.95;102550.03;5023475;28;20577;-86
2021/08/24 03:27:44;;;;;;;9.27;4.82;;;;;;;13.93;88.18;102550.38;5006983;28;20034;-86
2021/08/24 03:30:12;;;;;;;7.22;4.32;;;;;;;13.87;88.38;102549.13;5025090;28;20039;-86
2021/08/24 03:32:38;;;;;;;8.75;4.80;;;;;;;13.82;89.01;102540.63;5006104;28;20033;-85
2021/08/24 03:35:05;;;;;;;8.82;4.78;;;;;;;13.83;88.86;102553.13;4988123;28;20025;-86
2021/08/24 03:37:31;;;;;;;8.43;4.85;;;;;;;13.81;89.03;102549.72;5022140;28;20048;-86
2021/08/24 03:39:56;;;;;;;7.85;4.80;;;;;;;13.81;89.47;102550.59;5024330;28;20476;-86
2021/08/24 03:42:22;;;;;;;7.97;5.03;;;;;;;13.76;89.22;102552.91;5006670;28;20033;-85
2021/08/24 03:44:48;;;;;;;10.68;6.20;;;;;;;13.66;90.07;102521.53;5024564;28;20496;-86
2021/08/24 03:47:14;;;;;;;8.98;5.43;;;;;;;13.80;90.36;102554.28;5007291;28;20033;-86
2021/08/24 03:49:40;;;;;;;11.60;6.03;;;;;;;13.80;90.69;102546.16;5007910;28;20033;-85
2021/08/24 03:52:06;;;;;;;9.65;5.90;;;;;;;13.68;90.92;102538.44;5011426;28;20033;-86
2021/08/24 03:54:32;;;;;;;10.25;5.93;;;;;;;13.87;90.45;102554.53;4992434;28;20029;-86
2021/08/24 03:56:58;;;;;;;8.48;5.65;;;;;;;13.87;90.15;102549.13;4992277;28;20068;-85
2021/08/24 03:59:24;;;;;;;9.98;6.50;;;;;;;13.88;90.13;102545.41;5006906;28;20033;-86
2021/08/24 04:01:49;;;;;;;11.00;6.20;;;;;;;13.80;90.20;102531.81;5008019;28;20109;-86
2021/08/24 04:04:15;;;;;;;11.63;5.93;;;;;;;13.84;90.58;102544.03;5004459;28;20041;-86
2021/08/24 04:06:41;;;;;;;12.20;5.63;;;;;;;13.81;90.69;102539.78;4991697;28;20056;-86
2021/08/24 04:09:06;;;;;;;7.05;4.90;;;;;;;13.54;90.72;102504.66;5008494;28;20036;-86
2021/08/24 04:11:32;;;;;;;11.48;6.25;;;;;;;13.75;91.04;102536.81;4990872;28;20496;-86
2021/08/24 04:13:58;;;;;;;8.95;5.57;;;;;;;13.80;91.23;102543.47;5007661;28;20025;-86
2021/08/24 04:16:23;;;;;;;11.13;5.47;;;;;;;13.79;90.94;102532.81;5006265;28;20491;-85
2021/08/24 04:18:49;;;;;;;11.75;5.93;;;;;;;13.78;90.99;102533.81;4988024;28;20041;-86
2021/08/24 04:21:17;;;;;;;11.88;6.05;;;;;;;13.80;91.10;102534.50;5006094;28;20029;-86
2021/08/24 04:23:45;;;;;;;9.25;5.03;;;;;;;13.80;91.22;102539.91;5006127;28;20501;-86
2021/08/24 04:26:12;;;;;;;9.65;5.97;;;;;;;13.78;91.06;102536.50;5007716;28;20480;-85
2021/08/24 04:28:38;;;;;;;9.93;6.32;;;;;;;13.76;91.33;102527.69;5023469;28;20789;-84
2021/08/24 04:31:06;;;;;;;10.20;5.93;;;;;;;13.78;91.16;102539.22;4990107;28;20109;-85
2021/08/24 04:33:32;;;;;;;8.90;5.10;;;;;;;13.68;91.19;102533.03;4986615;28;20025;-86
2021/08/24 04:35:58;;;;;;;9.82;5.68;;;;;;;13.62;91.48;102529.94;5023551;28;20102;-85
2021/08/24 04:38:24;;;;;;;7.75;4.80;;;;;;;13.61;91.05;102532.81;4988746;28;20029;-86
2021/08/24 04:40:50;;;;;;;9.40;5.30;;;;;;;13.60;91.09;102537.38;5009046;28;20072;-85
2021/08/24 04:43:16;;;;;;;10.35;4.85;;;;;;;13.54;90.54;102531.69;5008374;28;20041;-85
2021/08/24 04:45:42;;;;;;;8.32;4.97;;;;;;;13.50;90.60;102536.56;5008116;28;20025;-86
2021/08/24 04:48:08;;;;;;;7.65;4.90;;;;;;;13.47;90.89;102538.69;5003190;28;20038;-85
2021/08/24 04:50:34;;;;;;;9.57;5.28;;;;;;;13.43;91.36;102530.06;5005540;28;20025;-86
2021/08/24 04:53:00;;;;;;;9.68;5.22;;;;;;;13.52;91.38;102534.56;4990405;28;20038;-86
2021/08/24 04:55:25;;;;;;;9.93;5.40;;;;;;;13.46;91.41;102528.91;5005191;28;20534;-86
2021/08/24 04:57:51;;;;;;;8.85;5.20;;;;;;;13.50;91.67;102539.28;5024601;28;20029;-86
2021/08/24 05:00:17;;;;;;;9.38;5.88;;;;;;;13.37;91.49;102514.47;5027751;28;20037;-86
2021/08/24 05:02:43;;;;;;;10.30;5.50;;;;;;;13.52;91.48;102533.69;5012413;28;20032;-86
2021/08/24 05:05:09;;;;;;;9.93;5.25;;;;;;;13.58;91.29;102533.94;5014335;28;20026;-87
2021/08/24 05:07:34;;;;;;;10.13;5.38;;;;;;;13.52;91.28;102522.88;5013954;28;20032;-85
2021/08/24 05:10:03;;;;;;;8.63;5.57;;;;;;;13.57;90.99;102534.09;5018941;28;20903;-86
2021/08/24 05:12:29;;;;;;;9.30;5.13;;;;;;;13.43;90.48;102527.34;5019693;28;20029;-85
2021/08/24 05:14:55;;;;;;;10.63;5.30;;;;;;;13.44;90.88;102539.84;5004642;28;20033;-86
2021/08/24 05:17:20;;;;;;;8.30;4.97;;;;;;;13.39;91.03;102547.59;5029068;28;20076;-87
2021/08/24 05:19:46;;;;;;;8.45;5.22;;;;;;;13.30;91.11;102534.97;5023336;28;20034;-85
2021/08/24 05:22:12;;;;;;;8.75;4.38;;;;;;;13.10;90.94;102499.94;5016161;28;20033;-85
2021/08/24 05:24:37;;;;;;;7.85;4.90;;;;;;;13.24;91.34;102531.00;5029684;28;20040;-85
2021/08/24 05:27:04;;;;;;;10.95;5.35;;;;;;;13.25;91.70;102539.94;5010909;28;20014;-86
2021/08/24 05:29:30;;;;;;;9.98;5.07;;;;;;;13.25;91.26;102532.69;5012731;28;20060;-86
2021/08/24 05:31:55;;;;;;;8.82;5.10;;;;;;;13.13;91.34;102513.13;5027430;28;20037;-86
2021/08/24 05:34:22;;;;;;;8.10;4.95;;;;;;;13.29;91.32;102534.13;5012956;28;20107;-86
2021/08/24 05:36:48;;;;;;;11.40;5.20;;;;;;;13.33;91.47;102540.06;5000771;28;20085;-86
2021/08/24 05:39:13;;;;;;;9.20;5.47;;;;;;;13.33;91.64;102534.66;5010709;28;20026;-86
2021/08/24 05:41:40;;;;;;;11.38;5.03;;;;;;;13.30;91.65;102524.16;5029200;28;20033;-87
2021/08/24 05:44:07;;;;;;;9.85;5.13;;;;;;;13.36;92.23;102535.25;5028781;28;20095;-86
2021/08/24 05:46:32;;;;;;;10.68;4.82;;;;;;;13.31;91.86;102536.66;4995313;28;20116;-86
2021/08/24 05:48:58;;;;;;;9.32;5.35;;;;;;;13.19;92.14;102512.53;5015151;28;20369;-86
2021/08/24 05:51:24;;;;;;;9.25;4.90;;;;;;;13.31;92.21;102533.97;5000224;28;20029;-86
2021/08/24 05:53:50;;;;;;;7.82;4.57;;;;;;;13.22;91.96;102515.94;5010385;28;20025;-85
2021/08/24 05:56:19;;;;;;;8.35;4.93;;;;;;;13.31;92.07;102540.25;5027587;28;20033;-86
2021/08/24 05:58:45;;;;;;;7.72;4.55;;;;;;;13.36;92.14;102535.25;5021498;28;20055;-86
2021/08/24 06:01:26;;;;;;;8.90;4.93;;;;;;;13.32;92.07;102523.00;5006866;28;20400;-86
2021/08/24 06:03:52;;;;;;;9.27;4.85;;;;;;;13.38;92.25;102543.16;5026840;28;20026;-87
2021/08/24 06:06:20;;;;;;;8.07;5.00;;;;;;;13.43;92.62;102535.47;5021153;28;20025;-85
2021/08/24 06:08:46;;;;;;;9.60;5.63;;;;;;;13.40;92.55;102546.59;5013154;28;20510;-87
2021/08/24 06:11:47;;;;;;;9.00;5.13;;;;;;;13.42;93.05;102536.47;5002760;28;20034;-85
2021/08/24 06:14:14;;;;;;;9.57;5.88;;;;;;;13.45;92.99;102538.88;4976207;28;20488;-86
2021/08/24 06:16:40;;;;;;;10.88;6.10;;;;;;;13.51;93.09;102540.97;5012657;28;20038;-85
2021/08/24 06:19:07;;;;;;;10.15;6.03;;;;;;;13.49;93.19;102542.13;5011114;28;20033;-86
2021/08/24 06:21:33;;;;;;;9.65;6.03;;;;;;;13.45;93.19;102524.53;5021798;28;20030;-86
2021/08/24 06:24:01;;;;;;;11.70;7.25;;;;;;;13.54;93.04;102532.53;5023812;28;20155;-85
2021/08/24 06:26:26;;;;;;;9.80;6.40;;;;;;;13.63;93.23;102541.63;5028023;28;20040;-86
2021/08/24 06:28:52;;;;;;;13.55;6.85;;;;;;;13.63;92.87;102541.63;5003880;28;20037;-84
2021/08/24 06:31:20;;;;;;;11.65;6.28;;;;;;;13.71;93.57;102559.78;5006043;28;20032;-86
2021/08/24 06:33:47;;;;;;;14.73;7.05;;;;;;;13.74;93.38;102560.31;5026969;28;20108;-85
2021/08/24 06:36:14;;;;;;;14.45;6.45;;;;;;;13.76;93.61;102562.84;5028826;28;20496;-86
2021/08/24 06:38:41;;;;;;;15.32;7.55;;;;;;;13.78;93.87;102555.44;4992166;28;20037;-85
2021/08/24 06:41:07;;;;;;;15.45;6.60;;;;;;;13.83;93.78;102566.66;5028895;28;20603;-87
2021/08/24 06:43:33;;;;;;;12.55;6.57;;;;;;;13.83;93.83;102559.38;5027288;28;20069;-88
2021/08/24 06:45:59;;;;;;;16.17;6.63;;;;;;;13.79;94.05;102557.16;5031054;28;20396;-87
2021/08/24 06:48:24;;;;;;;17.98;7.10;;;;;;;13.68;94.22;102536.59;5026481;28;20117;-86
2021/08/24 06:50:51;;;;;;;13.48;6.70;;;;;;;13.87;94.27;102562.66;5029186;28;20403;-86
2021/08/24 06:53:17;;;;;;;13.70;7.60;;;;;;;13.93;94.47;102562.03;5027487;28;20048;-86
2021/08/24 06:55:43;;;;;;;12.82;6.72;;;;;;;14.01;94.18;102572.91;5014660;28;20388;-87
2021/08/24 06:58:10;;;;;;;15.20;7.00;;;;;;;14.06;94.39;102575.16;5024920;28;20025;-88
2021/08/24 07:00:36;;;;;;;13.90;7.72;;;;;;;14.04;94.51;102563.66;4998537;28;20033;-86
2021/08/24 07:03:02;;;;;;;12.20;7.50;;;;;;;14.08;94.30;102557.78;5011699;28;20119;-85
2021/08/24 07:05:29;;;;;;;13.43;7.45;;;;;;;14.26;94.40;102575.84;5023296;28;20034;-87
2021/08/24 07:07:55;;;;;;;12.63;7.10;;;;;;;14.30;94.33;102556.44;5007566;28;20075;-87
2021/08/24 07:10:22;;;;;;;13.85;8.65;;;;;;;14.54;94.01;102583.91;5021500;28;20102;-87
2021/08/24 07:12:48;;;;;;;13.80;8.23;;;;;;;14.64;93.90;102573.81;4994253;28;20031;-86
2021/08/24 07:15:17;;;;;;;14.82;8.25;;;;;;;14.79;93.60;102582.19;5010307;28;20400;-86
2021/08/24 07:17:42;;;;;;;13.10;7.10;;;;;;;14.80;93.26;102579.34;5008288;28;20029;-87
2021/08/24 07:20:11;;;;;;;10.40;6.40;;;;;;;14.86;93.29;102573.28;5024631;28;20022;-84
2021/08/24 07:22:38;;;;;;;12.32;7.25;;;;;;;14.94;93.14;102581.47;4986343;28;20128;-86
2021/08/24 07:25:05;;;;;;;13.00;6.50;;;;;;;15.02;92.96;102587.94;5009582;28;20025;-86
2021/08/24 07:27:31;;;;;;;12.40;6.72;;;;;;;15.11;92.61;102582.41;5008078;28;20014;-86
2021/08/24 07:29:57;;;;;;;11.20;7.05;;;;;;;15.17;92.75;102589.88;5019977;28;20029;-86
2021/08/24 07:32:23;;;;;;;12.00;6.93;;;;;;;15.05;92.65;102566.78;5010384;28;20029;-85
2021/08/24 07:34:48;;;;;;;12.23;6.20;;;;;;;15.24;92.50;102581.97;5018559;28;20393;-86
2021/08/24 07:37:14;;;;;;;12.23;6.05;;;;;;;15.28;92.20;102577.91;4981507;28;20093;-85
2021/08/24 07:39:39;;;;;;;9.32;5.68;;;;;;;15.31;92.27;102568.63;5011622;28;20416;-86
2021/08/24 07:42:05;;;;;;;16.25;6.18;;;;;;;15.31;91.85;102564.03;5017861;28;20025;-87
2021/08/24 07:44:33;;;;;;;11.95;6.03;;;;;;;15.52;91.93;102587.16;5008162;28;20903;-87
2021/08/24 07:47:00;;;;;;;25.98;7.28;;;;;;;15.64;91.63;102593.13;5010399;28;20628;-87
2021/08/24 07:49:26;;;;;;;11.98;6.07;;;;;;;15.69;91.39;102588.97;5016449;28;20056;-87
2021/08/24 07:51:54;;;;;;;13.52;5.80;;;;;;;15.82;90.99;102581.19;5016029;28;20025;-86
2021/08/24 07:54:21;;;;;;;11.25;5.18;;;;;;;15.82;90.61;102572.19;5008592;28;20379;-85
2021/08/24 07:56:47;;;;;;;20.23;6.88;;;;;;;15.93;90.49;102571.91;5009695;28;20030;-86
2021/08/24 07:59:12;;;;;;;15.00;5.28;;;;;;;16.05;90.15;102575.97;5023702;28;20093;-86
2021/08/24 08:01:38;;;;;;;10.90;5.57;;;;;;;16.19;89.79;102596.16;5024689;28;20039;-86
2021/08/24 08:04:04;;;;;;;10.10;5.68;;;;;;;16.31;89.54;102587.69;5009045;28;20029;-87
2021/08/24 08:06:29;;;;;;;9.57;5.70;;;;;;;16.41;89.41;102593.81;5007356;28;20144;-87
2021/08/24 08:08:55;;;;;;;10.40;5.15;;;;;;;16.47;89.54;102579.56;5010310;28;20036;-87
2021/08/24 08:11:20;;;;;;;8.95;4.70;;;;;;;16.56;89.15;102577.66;4989265;28;20025;-87
2021/08/24 08:13:46;;;;;;;8.52;5.00;;;;;;;16.61;88.67;102584.28;5010064;28;20109;-86
2021/08/24 08:16:12;;;;;;;6.78;4.20;;;;;;;16.68;88.06;102579.03;5023569;28;20030;-87
2021/08/24 08:18:38;;;;;;;10.65;5.38;;;;;;;16.80;87.85;102591.25;5026577;28;20036;-87
2021/08/24 08:21:04;;;;;;;9.23;4.53;;;;;;;16.80;87.68;102574.09;5026663;28;20022;-87
2021/08/24 08:23:29;;;;;;;9.05;4.90;;;;;;;16.90;86.94;102561.19;5026860;28;20500;-87
2021/08/24 08:25:55;;;;;;;8.20;4.38;;;;;;;17.03;86.71;102560.63;5021288;28;20021;-87
2021/08/24 08:28:28;;;;;;;8.27;4.47;;;;;;;17.18;86.29;102580.66;5012042;28;20032;-87
2021/08/24 08:30:54;;;;;;;6.72;4.13;;;;;;;17.32;85.99;102588.06;5005934;28;20038;-84
2021/08/24 08:33:20;;;;;;;6.85;4.15;;;;;;;17.31;85.87;102564.63;5029005;28;20483;-84
2021/08/24 08:35:45;;;;;;;7.88;4.38;;;;;;;17.53;85.26;102586.63;5023039;28;20029;-84
2021/08/24 08:38:11;;;;;;;7.53;4.20;;;;;;;17.65;85.07;102584.31;5027119;28;20018;-83
2021/08/24 08:40:45;;;;;;;7.68;3.80;;;;;;;17.82;84.21;102587.84;5031786;28;20022;-82
2021/08/24 08:43:43;;;;;;;5.78;3.83;;;;;;;18.05;83.75;102594.16;5015600;28;20029;-83
2021/08/24 08:46:19;;;;;;;6.13;4.05;;;;;;;18.28;82.45;102596.03;4997658;28;20030;-85
2021/08/24 08:49:00;;;;;;;8.27;4.25;;;;;;;18.38;80.93;102592.03;5033420;28;20025;-83
2021/08/24 08:51:34;;;;;;;8.02;3.75;;;;;;;18.50;80.49;102595.19;5014992;28;20032;-83
2021/08/24 08:54:15;;;;;;;5.32;3.38;;;;;;;18.64;79.36;102591.63;5032737;28;20105;-83
2021/08/24 08:56:44;;;;;;;6.90;3.42;;;;;;;18.74;78.13;102596.00;5028894;28;20507;-84
2021/08/24 08:59:19;;;;;;;5.78;3.50;;;;;;;18.84;77.57;102597.44;5025467;28;20151;-83
2021/08/24 09:02:24;;;;;;;5.72;3.33;;;;;;;18.99;76.75;102599.31;5019333;28;20018;-83
2021/08/24 09:04:51;;;;;;;6.03;3.40;;;;;;;19.13;76.40;102597.63;5020911;28;20107;-83
2021/08/24 09:07:24;;;;;;;6.00;3.53;;;;;;;19.36;75.82;102603.00;5015748;28;20113;-84
2021/08/24 09:09:50;;;;;;;4.70;2.90;;;;;;;19.38;74.56;102573.66;5026952;28;20040;-83
2021/08/24 09:12:17;;;;;;;6.15;3.22;;;;;;;19.61;73.59;102582.56;5031057;28;20021;-84
2021/08/24 09:14:51;;;;;;;6.97;3.55;;;;;;;19.82;72.92;102605.47;5017677;28;20032;-82
2021/08/24 09:17:24;;;;;;;5.63;3.20;;;;;;;19.94;72.15;102598.50;5027774;28;20488;-86
2021/08/24 09:20:12;;;;;;;6.28;3.08;;;;;;;20.04;71.41;102590.00;5024806;28;20044;-86
2021/08/24 09:22:40;;;;;;;5.75;3.20;;;;;;;20.02;70.72;102578.41;5033281;28;20127;-86
2021/08/24 09:25:09;;;;;;;5.35;3.00;;;;;;;20.18;70.51;102589.91;5028732;28;20028;-86
2021/08/24 09:27:58;;;;;;;7.03;3.38;;;;;;;20.33;69.93;102591.75;5007378;28;20109;-86
2021/08/24 09:30:24;;;;;;;5.47;3.25;;;;;;;20.42;69.92;102587.81;5028498;28;20333;-86
2021/08/24 09:33:01;;;;;;;10.65;3.70;;;;;;;20.61;69.26;102595.41;5031262;28;20032;-87
2021/08/24 09:35:28;;;;;;;6.53;3.58;;;;;;;20.74;69.05;102596.53;5032823;28;20029;-85
2021/08/24 09:37:55;;;;;;;5.30;3.28;;;;;;;20.87;69.69;102574.75;5011647;28;20025;-87
2021/08/24 09:40:41;;;;;;;5.97;3.50;;;;;;;21.05;68.53;102588.75;5031365;28;20048;-86
2021/08/24 09:43:29;;;;;;;5.10;2.95;;;;;;;21.11;67.50;102595.28;5019237;28;20033;-86
2021/08/24 09:46:01;;;;;;;6.75;3.35;;;;;;;21.15;67.69;102584.81;5031348;28;20034;-86
2021/08/24 09:48:29;;;;;;;5.63;3.38;;;;;;;21.36;68.27;102595.66;5032818;28;20031;-86
2021/08/24 09:51:19;;;;;;;7.25;3.30;;;;;;;21.56;67.60;102582.06;5014982;28;20056;-87
2021/08/24 09:53:45;;;;;;;6.22;4.00;;;;;;;21.62;66.57;102569.47;5010389;28;20017;-85
2021/08/24 09:56:12;;;;;;;5.90;3.55;;;;;;;21.86;65.63;102588.09;5016538;28;20497;-86
2021/08/24 09:58:44;;;;;;;6.75;3.83;;;;;;;21.85;65.55;102577.31;5010887;28;20053;-86
2021/08/24 10:01:14;;;;;;;6.57;3.58;;;;;;;22.00;64.98;102579.91;5010158;28;20021;-86
2021/08/24 10:03:42;;;;;;;6.28;3.70;;;;;;;22.01;65.17;102562.41;5027608;28;20052;-87
2021/08/24 10:06:32;;;;;;;6.00;4.03;;;;;;;22.21;64.86;102574.28;5027205;28;20037;-86
2021/08/24 10:09:18;;;;;;;5.07;3.25;;;;;;;22.24;64.22;102573.00;4993390;28;20037;-84
2021/08/24 10:11:44;;;;;;;5.40;3.60;;;;;;;22.21;64.01;102562.47;5031314;28;20048;-83
2021/08/24 10:14:19;;;;;;;6.07;3.67;;;;;;;22.31;63.71;102574.69;5014335;28;20648;-83
2021/08/24 10:16:46;;;;;;;5.65;3.42;;;;;;;22.45;64.11;102569.22;5028495;28;20033;-82
2021/08/24 10:19:24;;;;;;;5.53;3.53;;;;;;;22.57;63.32;102573.00;5031016;28;20026;-84
2021/08/24 10:21:50;;;;;;;7.13;3.97;;;;;;;22.62;63.11;102573.19;5019191;28;20025;-86
2021/08/24 10:24:25;;;;;;;6.57;4.10;;;;;;;22.62;62.76;102556.75;5027886;28;20052;-85
2021/08/24 10:26:57;;;;;;;6.07;3.95;;;;;;;22.78;62.34;102564.56;5005178;28;20038;-84
2021/08/24 10:29:26;;;;;;;7.63;4.32;;;;;;;22.87;61.40;102578.88;5031038;28;20112;-83
2021/08/24 10:32:04;;;;;;;8.02;4.22;;;;;;;22.98;61.28;102580.16;5018712;28;20108;-84
2021/08/24 10:34:45;;;;;;;6.43;4.10;;;;;;;23.13;61.20;102574.41;5039125;28;20017;-84
2021/08/24 10:37:31;;;;;;;7.45;4.50;;;;;;;23.19;61.26;102563.41;5032854;28;20021;-83
2021/08/24 10:40:08;;;;;;;7.30;4.50;;;;;;;23.39;61.33;102570.72;5027511;28;20029;-84
2021/08/24 10:42:55;;;;;;;7.20;4.13;;;;;;;23.47;60.59;102567.72;5035136;28;20030;-82
2021/08/24 10:45:21;;;;;;;7.30;4.85;;;;;;;23.55;60.48;102574.88;5025696;28;20033;-82
2021/08/24 10:48:09;;;;;;;6.25;4.43;;;;;;;23.28;61.66;102569.50;5030560;28;20033;-83
2021/08/24 10:50:57;;;;;;;6.75;4.22;;;;;;;23.22;61.06;102568.47;5030444;28;20025;-85
2021/08/24 10:53:32;;;;;;;9.07;4.60;;;;;;;23.06;61.30;102571.69;4999261;28;20550;-83
2021/08/24 10:56:06;;;;;;;7.57;4.53;;;;;;;22.77;61.76;102562.84;5031258;28;20039;-83
2021/08/24 10:58:37;;;;;;;11.82;4.55;;;;;;;22.66;62.11;102570.91;5026554;28;20044;-83
2021/08/24 11:01:05;;;;;;;7.97;4.50;;;;;;;22.53;62.78;102566.25;4994157;28;20026;-83
2021/08/24 11:03:59;;;;;;;7.93;4.05;;;;;;;22.46;62.77;102565.41;5033754;28;20021;-82
2021/08/24 11:06:33;;;;;;;8.23;4.25;;;;;;;22.68;63.17;102558.66;5032946;28;20400;-82
2021/08/24 11:09:04;;;;;;;6.18;4.15;;;;;;;22.80;62.95;102565.16;5033512;28;20025;-83
2021/08/24 11:12:01;;;;;;;8.70;5.28;;;;;;;23.01;62.24;102569.59;5035070;28;20079;-82
2021/08/24 11:15:16;;;;;;;10.45;4.50;;;;;;;23.07;60.94;102569.78;5029690;28;20033;-82
2021/08/24 11:17:54;;;;;;;6.40;4.10;;;;;;;22.98;61.79;102560.94;5030293;28;20061;-82
2021/08/24 11:20:38;;;;;;;8.50;4.50;;;;;;;23.34;61.56;102570.53;5035660;28;20078;-82
2021/08/24 11:23:22;;;;;;;6.85;4.20;;;;;;;23.63;59.65;102553.53;5020567;28;20025;-82
2021/08/24 11:25:54;;;;;;;7.03;4.82;;;;;;;23.66;59.75;102561.31;5015064;28;20052;-82
2021/08/24 11:29:00;;;;;;;9.02;5.20;;;;;;;24.16;58.64;102565.25;5034376;28;20029;-83
2021/08/24 11:31:42;;;;;;;7.93;4.30;;;;;;;23.92;59.15;102560.34;5033108;28;20168;-84
2021/08/24 11:34:17;;;;;;;8.30;4.45;;;;;;;23.78;59.29;102560.66;5031552;28;20029;-84
2021/08/24 11:36:48;;;;;;;10.02;5.60;;;;;;;23.33;60.84;102555.97;5028087;28;20050;-86